Terminal Aerodrome Forecast
Issued by NWS

Home | Current Version | Previous Version | Graphics & Text | Print | Product List | Glossary On
Versions: 1 2 3 4 5 6 7 8 9 10 11 12
000
FTUS45 KGGW 231130
TAFGDV
TAF
KGDV 231130Z 2312/2412 31013KT P6SM BKN060
     FM231600 32018KT P6SM SCT110
     FM240300 33009KT P6SM SKC=

USA.gov is the U.S. government's official web portal to all federal, state and local government web resources and services.